sensor_id;sensor_type;location;lat;lon;timestamp;temperature;humidity
7388;DHT22;3735;50.136;11.062;2023-03-01T00:01:10;-5.10;99.90
7388;DHT22;3735;50.136;11.062;2023-03-01T00:03:38;-5.10;99.90
7388;DHT22;3735;50.136;11.062;2023-03-01T00:06:05;-5.10;99.90
7388;DHT22;3735;50.136;11.062;2023-03-01T00:08:32;-5.10;99.90
7388;DHT22;3735;50.136;11.062;2023-03-01T00:11:12;-5.10;99.90
7388;DHT22;3735;50.136;11.062;2023-03-01T00:13:48;-5.10;99.90
7388;DHT22;3735;50.136;11.062;2023-03-01T00:16:19;-5.10;99.90
7388;DHT22;3735;50.136;11.062;2023-03-01T00:18:50;-5.10;99.90
7388;DHT22;3735;50.136;11.062;2023-03-01T00:21:16;-5.10;99.90
7388;DHT22;3735;50.136;11.062;2023-03-01T00:23:43;-5.10;99.90
7388;DHT22;3735;50.136;11.062;2023-03-01T00:26:10;-5.10;99.90
7388;DHT22;3735;50.136;11.062;2023-03-01T00:28:38;-5.20;99.90
7388;DHT22;3735;50.136;11.062;2023-03-01T00:31:09;-5.20;99.90
7388;DHT22;3735;50.136;11.062;2023-03-01T00:33:37;-5.20;99.90
7388;DHT22;3735;50.136;11.062;2023-03-01T00:36:03;-5.20;99.90
7388;DHT22;3735;50.136;11.062;2023-03-01T00:38:29;-5.20;99.90
7388;DHT22;3735;50.136;11.062;2023-03-01T00:41:06;-5.20;99.90
7388;DHT22;3735;50.136;11.062;2023-03-01T00:43:33;-5.30;99.90
7388;DHT22;3735;50.136;11.062;2023-03-01T00:46:09;-5.20;99.90
7388;DHT22;3735;50.136;11.062;2023-03-01T00:48:40;-5.30;99.90
7388;DHT22;3735;50.136;11.062;2023-03-01T00:51:16;-5.30;99.90
7388;DHT22;3735;50.136;11.062;2023-03-01T00:53:47;-5.30;99.90
7388;DHT22;3735;50.136;11.062;2023-03-01T00:56:15;-5.30;99.90
7388;DHT22;3735;50.136;11.062;2023-03-01T00:58:41;-5.30;99.90
7388;DHT22;3735;50.136;11.062;2023-03-01T01:01:17;-5.40;99.90
7388;DHT22;3735;50.136;11.062;2023-03-01T01:03:52;-5.40;99.90
7388;DHT22;3735;50.136;11.062;2023-03-01T01:06:23;-5.40;99.90
7388;DHT22;3735;50.136;11.062;2023-03-01T01:08:51;-5.40;99.90
7388;DHT22;3735;50.136;11.062;2023-03-01T01:11:19;-5.40;99.90
7388;DHT22;3735;50.136;11.062;2023-03-01T01:13:46;-5.40;99.90
7388;DHT22;3735;50.136;11.062;2023-03-01T01:16:13;-5.40;99.90
7388;DHT22;3735;50.136;11.062;2023-03-01T01:18:40;-5.40;99.90
7388;DHT22;3735;50.136;11.062;2023-03-01T01:21:11;-5.40;99.90
7388;DHT22;3735;50.136;11.062;2023-03-01T01:23:39;-5.40;99.90
7388;DHT22;3735;50.136;11.062;2023-03-01T01:26:26;-5.50;99.90
7388;DHT22;3735;50.136;11.062;2023-03-01T01:28:54;-5.50;99.90
7388;DHT22;3735;50.136;11.062;2023-03-01T01:31:22;-5.50;99.90
7388;DHT22;3735;50.136;11.062;2023-03-01T01:33:51;-5.50;99.90
7388;DHT22;3735;50.136;11.062;2023-03-01T01:36:18;-5.60;99.90
7388;DHT22;3735;50.136;11.062;2023-03-01T01:38:44;-5.50;99.90
7388;DHT22;3735;50.136;11.062;2023-03-01T01:41:12;-5.60;99.90
7388;DHT22;3735;50.136;11.062;2023-03-01T01:43:42;-5.60;99.90
7388;DHT22;3735;50.136;11.062;2023-03-01T01:46:29;-5.50;99.90
7388;DHT22;3735;50.136;11.062;2023-03-01T01:49:00;-5.50;99.90
7388;DHT22;3735;50.136;11.062;2023-03-01T01:51:38;-5.50;99.90
7388;DHT22;3735;50.136;11.062;2023-03-01T01:54:16;-5.40;99.90
7388;DHT22;3735;50.136;11.062;2023-03-01T01:57:03;-5.40;99.90
7388;DHT22;3735;50.136;11.062;2023-03-01T01:59:36;-5.40;99.90
7388;DHT22;3735;50.136;11.062;2023-03-01T02:02:04;-5.30;99.90
7388;DHT22;3735;50.136;11.062;2023-03-01T02:04:31;-5.30;99.90
7388;DHT22;3735;50.136;11.062;2023-03-01T02:07:05;-5.30;99.90
7388;DHT22;3735;50.136;11.062;2023-03-01T02:09:35;-5.20;99.90
7388;DHT22;3735;50.136;11.062;2023-03-01T02:12:03;-5.20;99.90
7388;DHT22;3735;50.136;11.062;2023-03-01T02:14:30;-5.10;99.90
7388;DHT22;3735;50.136;11.062;2023-03-01T02:16:55;-5.10;99.90
7388;DHT22;3735;50.136;11.062;2023-03-01T02:20:26;-5.10;99.90
7388;DHT22;3735;50.136;11.062;2023-03-01T02:22:37;-5.20;99.90
7388;DHT22;3735;50.136;11.062;2023-03-01T02:25:07;-5.30;99.90
7388;DHT22;3735;50.136;11.062;2023-03-01T02:30:32;-5.20;99.90
7388;DHT22;3735;50.136;11.062;2023-03-01T02:33:00;-5.20;99.90
7388;DHT22;3735;50.136;11.062;2023-03-01T02:35:38;-5.30;99.90
7388;DHT22;3735;50.136;11.062;2023-03-01T02:38:07;-5.30;99.90
7388;DHT22;3735;50.136;11.062;2023-03-01T02:40:35;-5.30;99.90
7388;DHT22;3735;50.136;11.062;2023-03-01T02:43:04;-5.30;99.90
7388;DHT22;3735;50.136;11.062;2023-03-01T02:45:33;-5.30;99.90
7388;DHT22;3735;50.136;11.062;2023-03-01T02:47:59;-5.40;99.90
7388;DHT22;3735;50.136;11.062;2023-03-01T02:53:11;-5.50;99.90
7388;DHT22;3735;50.136;11.062;2023-03-01T02:55:42;-5.50;99.90
7388;DHT22;3735;50.136;11.062;2023-03-01T02:58:08;-5.60;99.90
7388;DHT22;3735;50.136;11.062;2023-03-01T03:00:40;-5.60;99.90
7388;DHT22;3735;50.136;11.062;2023-03-01T03:03:14;-5.60;99.90
7388;DHT22;3735;50.136;11.062;2023-03-01T03:05:42;-5.70;99.90
7388;DHT22;3735;50.136;11.062;2023-03-01T03:08:08;-5.70;99.90
7388;DHT22;3735;50.136;11.062;2023-03-01T03:10:39;-5.70;99.90
7388;DHT22;3735;50.136;11.062;2023-03-01T03:13:13;-5.60;99.90
7388;DHT22;3735;50.136;11.062;2023-03-01T03:15:41;-5.60;99.90
7388;DHT22;3735;50.136;11.062;2023-03-01T03:18:10;-5.60;99.90
7388;DHT22;3735;50.136;11.062;2023-03-01T03:20:40;-5.60;99.90
7388;DHT22;3735;50.136;11.062;2023-03-01T03:23:07;-5.60;99.90
7388;DHT22;3735;50.136;11.062;2023-03-01T03:25:33;-5.60;99.90
7388;DHT22;3735;50.136;11.062;2023-03-01T03:28:06;-5.60;99.90
7388;DHT22;3735;50.136;11.062;2023-03-01T03:30:37;-5.70;99.90
7388;DHT22;3735;50.136;11.062;2023-03-01T03:33:05;-5.70;99.90
7388;DHT22;3735;50.136;11.062;2023-03-01T03:35:37;-5.70;99.90
7388;DHT22;3735;50.136;11.062;2023-03-01T03:38:10;-5.60;99.90
7388;DHT22;3735;50.136;11.062;2023-03-01T03:40:46;-5.60;99.90
7388;DHT22;3735;50.136;11.062;2023-03-01T03:43:20;-5.50;99.90
7388;DHT22;3735;50.136;11.062;2023-03-01T03:45:49;-5.40;99.90
7388;DHT22;3735;50.136;11.062;2023-03-01T03:48:18;-5.30;99.90
7388;DHT22;3735;50.136;11.062;2023-03-01T03:50:49;-5.30;99.90
7388;DHT22;3735;50.136;11.062;2023-03-01T03:53:17;-5.30;99.90
7388;DHT22;3735;50.136;11.062;2023-03-01T03:55:44;-5.30;99.90
7388;DHT22;3735;50.136;11.062;2023-03-01T03:58:10;-5.40;99.90
7388;DHT22;3735;50.136;11.062;2023-03-01T04:00:44;-5.40;99.90
7388;DHT22;3735;50.136;11.062;2023-03-01T04:03:11;-5.40;99.90
7388;DHT22;3735;50.136;11.062;2023-03-01T04:05:40;-5.40;99.90
7388;DHT22;3735;50.136;11.062;2023-03-01T04:08:08;-5.40;99.90
7388;DHT22;3735;50.136;11.062;2023-03-01T04:10:40;-5.30;99.90
7388;DHT22;3735;50.136;11.062;2023-03-01T04:13:11;-5.20;99.90
7388;DHT22;3735;50.136;11.062;2023-03-01T04:15:39;-5.20;99.90
7388;DHT22;3735;50.136;11.062;2023-03-01T04:18:06;-5.10;99.90
7388;DHT22;3735;50.136;11.062;2023-03-01T04:20:34;-5.10;99.90
7388;DHT22;3735;50.136;11.062;2023-03-01T04:28:47;-4.60;99.90
7388;DHT22;3735;50.136;11.062;2023-03-01T04:31:16;-4.50;99.90
7388;DHT22;3735;50.136;11.062;2023-03-01T04:36:21;-4.40;99.90
7388;DHT22;3735;50.136;11.062;2023-03-01T04:38:48;-4.50;99.90
7388;DHT22;3735;50.136;11.062;2023-03-01T04:41:17;-4.60;99.90
7388;DHT22;3735;50.136;11.062;2023-03-01T04:43:46;-4.60;99.90
7388;DHT22;3735;50.136;11.062;2023-03-01T04:46:14;-4.60;99.90
7388;DHT22;3735;50.136;11.062;2023-03-01T04:48:42;-4.60;99.90
7388;DHT22;3735;50.136;11.062;2023-03-01T04:51:11;-4.50;99.90
7388;DHT22;3735;50.136;11.062;2023-03-01T04:53:40;-4.50;99.90
7388;DHT22;3735;50.136;11.062;2023-03-01T04:56:07;-4.40;99.90
7388;DHT22;3735;50.136;11.062;2023-03-01T04:58:33;-4.30;99.90
7388;DHT22;3735;50.136;11.062;2023-03-01T05:00:59;-4.30;99.90
7388;DHT22;3735;50.136;11.062;2023-03-01T05:03:25;-4.40;99.90
7388;DHT22;3735;50.136;11.062;2023-03-01T05:05:52;-4.20;99.90
7388;DHT22;3735;50.136;11.062;2023-03-01T05:08:18;-4.10;99.90
7388;DHT22;3735;50.136;11.062;2023-03-01T05:10:50;-4.10;99.90
7388;DHT22;3735;50.136;11.062;2023-03-01T05:13:18;-4.00;99.90
7388;DHT22;3735;50.136;11.062;2023-03-01T05:15:55;-4.00;99.90
7388;DHT22;3735;50.136;11.062;2023-03-01T05:18:24;-4.00;99.90
7388;DHT22;3735;50.136;11.062;2023-03-01T05:20:52;-4.00;99.90
7388;DHT22;3735;50.136;11.062;2023-03-01T05:23:22;-4.00;99.90
7388;DHT22;3735;50.136;11.062;2023-03-01T05:25:48;-4.00;99.90
7388;DHT22;3735;50.136;11.062;2023-03-01T05:28:19;-3.90;99.90
7388;DHT22;3735;50.136;11.062;2023-03-01T05:30:46;-3.90;99.90
7388;DHT22;3735;50.136;11.062;2023-03-01T05:33:12;-4.00;99.90
7388;DHT22;3735;50.136;11.062;2023-03-01T05:35:42;-3.90;99.90
7388;DHT22;3735;50.136;11.062;2023-03-01T05:38:12;-3.90;99.90
7388;DHT22;3735;50.136;11.062;2023-03-01T05:40:40;-3.90;99.90
7388;DHT22;3735;50.136;11.062;2023-03-01T05:43:07;-3.90;99.90
7388;DHT22;3735;50.136;11.062;2023-03-01T05:45:33;-3.80;99.90
7388;DHT22;3735;50.136;11.062;2023-03-01T05:48:02;-3.80;99.90
7388;DHT22;3735;50.136;11.062;2023-03-01T05:50:33;-3.80;99.90
7388;DHT22;3735;50.136;11.062;2023-03-01T05:53:06;-3.80;99.90
7388;DHT22;3735;50.136;11.062;2023-03-01T05:55:35;-3.80;99.90
7388;DHT22;3735;50.136;11.062;2023-03-01T05:58:04;-3.80;99.90
7388;DHT22;3735;50.136;11.062;2023-03-01T06:00:32;-3.80;99.90
7388;DHT22;3735;50.136;11.062;2023-03-01T06:03:00;-3.80;99.90
7388;DHT22;3735;50.136;11.062;2023-03-01T06:05:27;-3.80;99.90
7388;DHT22;3735;50.136;11.062;2023-03-01T06:07:53;-3.80;99.90
7388;DHT22;3735;50.136;11.062;2023-03-01T06:10:21;-3.90;99.90
7388;DHT22;3735;50.136;11.062;2023-03-01T06:12:47;-3.90;99.90
7388;DHT22;3735;50.136;11.062;2023-03-01T06:15:15;-3.90;99.90
7388;DHT22;3735;50.136;11.062;2023-03-01T06:17:44;-3.90;99.90
7388;DHT22;3735;50.136;11.062;2023-03-01T06:20:29;-3.90;99.90
7388;DHT22;3735;50.136;11.062;2023-03-01T06:22:55;-3.90;99.90
7388;DHT22;3735;50.136;11.062;2023-03-01T06:25:24;-3.80;99.90
7388;DHT22;3735;50.136;11.062;2023-03-01T06:27:52;-3.80;99.90
7388;DHT22;3735;50.136;11.062;2023-03-01T06:30:20;-3.70;99.90
7388;DHT22;3735;50.136;11.062;2023-03-01T06:32:47;-3.80;99.90
7388;DHT22;3735;50.136;11.062;2023-03-01T06:35:14;-3.80;99.90
7388;DHT22;3735;50.136;11.062;2023-03-01T06:37:46;-3.70;99.90
7388;DHT22;3735;50.136;11.062;2023-03-01T06:40:13;-3.70;99.90
7388;DHT22;3735;50.136;11.062;2023-03-01T06:42:43;-3.70;99.90
7388;DHT22;3735;50.136;11.062;2023-03-01T06:45:16;-3.70;99.90
7388;DHT22;3735;50.136;11.062;2023-03-01T06:47:44;-3.60;99.90
7388;DHT22;3735;50.136;11.062;2023-03-01T06:50:10;-3.50;99.90
7388;DHT22;3735;50.136;11.062;2023-03-01T06:52:36;-3.50;99.90
7388;DHT22;3735;50.136;11.062;2023-03-01T06:55:02;-3.40;99.90
7388;DHT22;3735;50.136;11.062;2023-03-01T06:57:29;-3.20;99.90
7388;DHT22;3735;50.136;11.062;2023-03-01T06:59:55;-3.20;99.90
7388;DHT22;3735;50.136;11.062;2023-03-01T07:02:21;-3.10;99.90
7388;DHT22;3735;50.136;11.062;2023-03-01T07:04:51;-3.10;99.90
7388;DHT22;3735;50.136;11.062;2023-03-01T07:07:18;-3.00;99.90
7388;DHT22;3735;50.136;11.062;2023-03-01T07:09:45;-2.90;99.90
7388;DHT22;3735;50.136;11.062;2023-03-01T07:12:11;-2.80;99.90
7388;DHT22;3735;50.136;11.062;2023-03-01T07:14:37;-2.60;99.90
7388;DHT22;3735;50.136;11.062;2023-03-01T07:17:03;-2.40;99.90
7388;DHT22;3735;50.136;11.062;2023-03-01T07:19:28;-2.30;99.90
7388;DHT22;3735;50.136;11.062;2023-03-01T07:21:54;-2.10;99.90
7388;DHT22;3735;50.136;11.062;2023-03-01T07:24:21;-2.00;99.90
7388;DHT22;3735;50.136;11.062;2023-03-01T07:26:51;-1.90;99.90
7388;DHT22;3735;50.136;11.062;2023-03-01T07:29:17;-1.70;99.90
7388;DHT22;3735;50.136;11.062;2023-03-01T07:31:43;-1.50;99.90
7388;DHT22;3735;50.136;11.062;2023-03-01T07:34:09;-1.40;99.90
7388;DHT22;3735;50.136;11.062;2023-03-01T07:36:36;-1.10;99.90
7388;DHT22;3735;50.136;11.062;2023-03-01T07:39:02;-1.00;99.90
7388;DHT22;3735;50.136;11.062;2023-03-01T07:41:29;-0.70;99.90
7388;DHT22;3735;50.136;11.062;2023-03-01T07:43:55;-0.40;99.90
7388;DHT22;3735;50.136;11.062;2023-03-01T07:46:21;0.00;99.90
7388;DHT22;3735;50.136;11.062;2023-03-01T07:48:47;0.40;99.90
7388;DHT22;3735;50.136;11.062;2023-03-01T07:51:13;0.90;99.90
7388;DHT22;3735;50.136;11.062;2023-03-01T07:53:39;1.40;99.90
7388;DHT22;3735;50.136;11.062;2023-03-01T07:56:07;2.50;99.90
7388;DHT22;3735;50.136;11.062;2023-03-01T07:58:40;4.10;99.90
7388;DHT22;3735;50.136;11.062;2023-03-01T08:01:09;5.70;99.90
7388;DHT22;3735;50.136;11.062;2023-03-01T08:03:37;7.10;99.90
7388;DHT22;3735;50.136;11.062;2023-03-01T08:06:05;8.00;99.90
7388;DHT22;3735;50.136;11.062;2023-03-01T08:08:32;9.20;99.90
7388;DHT22;3735;50.136;11.062;2023-03-01T08:11:00;9.90;99.90
7388;DHT22;3735;50.136;11.062;2023-03-01T08:13:28;10.50;99.90
7388;DHT22;3735;50.136;11.062;2023-03-01T08:15:54;11.10;99.90
7388;DHT22;3735;50.136;11.062;2023-03-01T08:18:25;11.30;99.90
7388;DHT22;3735;50.136;11.062;2023-03-01T08:20:51;11.70;99.90
7388;DHT22;3735;50.136;11.062;2023-03-01T08:23:16;11.90;99.90
7388;DHT22;3735;50.136;11.062;2023-03-01T08:25:42;11.60;99.90
7388;DHT22;3735;50.136;11.062;2023-03-01T08:28:08;11.80;99.90
7388;DHT22;3735;50.136;11.062;2023-03-01T08:30:34;12.00;99.90
7388;DHT22;3735;50.136;11.062;2023-03-01T08:32:59;12.60;99.90
7388;DHT22;3735;50.136;11.062;2023-03-01T08:35:25;12.90;99.90
7388;DHT22;3735;50.136;11.062;2023-03-01T08:37:51;12.60;99.90
7388;DHT22;3735;50.136;11.062;2023-03-01T08:40:17;12.80;99.90
7388;DHT22;3735;50.136;11.062;2023-03-01T08:42:43;12.60;99.90
7388;DHT22;3735;50.136;11.062;2023-03-01T08:45:09;13.10;99.90
7388;DHT22;3735;50.136;11.062;2023-03-01T08:47:36;12.90;99.90
7388;DHT22;3735;50.136;11.062;2023-03-01T08:50:02;13.20;99.90
7388;DHT22;3735;50.136;11.062;2023-03-01T08:52:28;13.00;99.90
7388;DHT22;3735;50.136;11.062;2023-03-01T08:54:55;12.30;99.90
7388;DHT22;3735;50.136;11.062;2023-03-01T08:57:22;12.40;99.90
7388;DHT22;3735;50.136;11.062;2023-03-01T08:59:47;12.30;99.90
7388;DHT22;3735;50.136;11.062;2023-03-01T09:02:15;12.40;99.90
7388;DHT22;3735;50.136;11.062;2023-03-01T09:04:43;12.70;99.90
7388;DHT22;3735;50.136;11.062;2023-03-01T09:07:10;12.80;99.90
7388;DHT22;3735;50.136;11.062;2023-03-01T09:09:36;12.70;99.90
7388;DHT22;3735;50.136;11.062;2023-03-01T09:12:03;13.20;99.90
7388;DHT22;3735;50.136;11.062;2023-03-01T09:14:29;13.00;99.90
7388;DHT22;3735;50.136;11.062;2023-03-01T09:16:55;13.10;99.90
7388;DHT22;3735;50.136;11.062;2023-03-01T09:19:22;13.70;99.90
7388;DHT22;3735;50.136;11.062;2023-03-01T09:21:48;13.20;99.90
7388;DHT22;3735;50.136;11.062;2023-03-01T09:24:22;13.10;99.90
7388;DHT22;3735;50.136;11.062;2023-03-01T09:26:51;13.30;99.90
7388;DHT22;3735;50.136;11.062;2023-03-01T09:29:19;14.10;99.90
7388;DHT22;3735;50.136;11.062;2023-03-01T09:31:44;13.70;99.90
7388;DHT22;3735;50.136;11.062;2023-03-01T09:34:10;14.00;99.90
7388;DHT22;3735;50.136;11.062;2023-03-01T09:36:37;14.60;99.90
7388;DHT22;3735;50.136;11.062;2023-03-01T09:39:04;14.40;99.90
7388;DHT22;3735;50.136;11.062;2023-03-01T09:41:44;14.40;99.90
7388;DHT22;3735;50.136;11.062;2023-03-01T09:47:22;13.40;99.90
7388;DHT22;3735;50.136;11.062;2023-03-01T09:52:39;14.30;99.90
7388;DHT22;3735;50.136;11.062;2023-03-01T09:55:26;14.60;99.90
7388;DHT22;3735;50.136;11.062;2023-03-01T10:00:56;14.00;99.90
7388;DHT22;3735;50.136;11.062;2023-03-01T10:03:51;14.20;99.90
7388;DHT22;3735;50.136;11.062;2023-03-01T10:06:23;14.50;99.90
7388;DHT22;3735;50.136;11.062;2023-03-01T10:08:54;14.30;99.90
7388;DHT22;3735;50.136;11.062;2023-03-01T10:11:44;13.80;99.90
7388;DHT22;3735;50.136;11.062;2023-03-01T10:14:39;14.70;99.90
7388;DHT22;3735;50.136;11.062;2023-03-01T10:23:13;15.30;99.90
7388;DHT22;3735;50.136;11.062;2023-03-01T10:25:57;14.60;99.90
7388;DHT22;3735;50.136;11.062;2023-03-01T10:29:03;14.60;99.90
7388;DHT22;3735;50.136;11.062;2023-03-01T10:31:50;14.30;99.90
7388;DHT22;3735;50.136;11.062;2023-03-01T10:34:20;14.50;99.90
7388;DHT22;3735;50.136;11.062;2023-03-01T10:36:56;14.80;99.90
7388;DHT22;3735;50.136;11.062;2023-03-01T10:39:25;14.90;99.90
7388;DHT22;3735;50.136;11.062;2023-03-01T10:42:05;15.20;99.90
7388;DHT22;3735;50.136;11.062;2023-03-01T10:44:48;15.60;99.90
7388;DHT22;3735;50.136;11.062;2023-03-01T10:52:36;16.40;99.90
7388;DHT22;3735;50.136;11.062;2023-03-01T11:00:46;16.20;99.90
7388;DHT22;3735;50.136;11.062;2023-03-01T11:03:18;16.40;99.90
7388;DHT22;3735;50.136;11.062;2023-03-01T11:08:46;17.00;99.90
7388;DHT22;3735;50.136;11.062;2023-03-01T11:16:31;15.80;99.90
7388;DHT22;3735;50.136;11.062;2023-03-01T11:19:20;15.80;99.90
7388;DHT22;3735;50.136;11.062;2023-03-01T11:22:07;15.60;99.90
7388;DHT22;3735;50.136;11.062;2023-03-01T11:27:19;15.40;99.90
7388;DHT22;3735;50.136;11.062;2023-03-01T11:35:42;15.90;99.90
7388;DHT22;3735;50.136;11.062;2023-03-01T11:38:24;16.30;99.90
7388;DHT22;3735;50.136;11.062;2023-03-01T11:41:05;17.00;99.90
7388;DHT22;3735;50.136;11.062;2023-03-01T11:43:57;16.60;99.90
7388;DHT22;3735;50.136;11.062;2023-03-01T11:58:22;16.90;99.90
7388;DHT22;3735;50.136;11.062;2023-03-01T12:04:05;17.10;99.90
7388;DHT22;3735;50.136;11.062;2023-03-01T12:07:03;17.30;99.90
7388;DHT22;3735;50.136;11.062;2023-03-01T12:18:18;17.50;99.90
7388;DHT22;3735;50.136;11.062;2023-03-01T12:21:10;17.20;99.90
7388;DHT22;3735;50.136;11.062;2023-03-01T12:32:13;16.80;99.90
7388;DHT22;3735;50.136;11.062;2023-03-01T12:35:11;17.40;99.90
7388;DHT22;3735;50.136;11.062;2023-03-01T12:38:37;18.00;99.90
7388;DHT22;3735;50.136;11.062;2023-03-01T12:41:11;17.60;99.90
7388;DHT22;3735;50.136;11.062;2023-03-01T12:44:03;17.40;99.90
7388;DHT22;3735;50.136;11.062;2023-03-01T12:49:28;17.50;99.90
7388;DHT22;3735;50.136;11.062;2023-03-01T12:52:02;18.50;99.90
7388;DHT22;3735;50.136;11.062;2023-03-01T12:54:50;18.70;99.90
7388;DHT22;3735;50.136;11.062;2023-03-01T12:57:30;18.30;99.90
7388;DHT22;3735;50.136;11.062;2023-03-01T13:09:07;18.80;99.90
7388;DHT22;3735;50.136;11.062;2023-03-01T13:11:42;18.50;99.90
7388;DHT22;3735;50.136;11.062;2023-03-01T13:16:46;17.70;99.90
7388;DHT22;3735;50.136;11.062;2023-03-01T13:19:21;17.80;99.90
7388;DHT22;3735;50.136;11.062;2023-03-01T13:21:51;17.80;99.90
7388;DHT22;3735;50.136;11.062;2023-03-01T13:24:29;17.50;99.90
7388;DHT22;3735;50.136;11.062;2023-03-01T13:29:52;16.90;99.90
7388;DHT22;3735;50.136;11.062;2023-03-01T13:32:28;16.60;99.90
7388;DHT22;3735;50.136;11.062;2023-03-01T13:37:43;16.30;99.90
7388;DHT22;3735;50.136;11.062;2023-03-01T13:42:56;16.50;99.90
7388;DHT22;3735;50.136;11.062;2023-03-01T13:48:04;15.50;99.90
7388;DHT22;3735;50.136;11.062;2023-03-01T13:50:43;16.10;99.90
7388;DHT22;3735;50.136;11.062;2023-03-01T13:53:18;16.20;99.90
7388;DHT22;3735;50.136;11.062;2023-03-01T13:55:51;16.20;99.90
7388;DHT22;3735;50.136;11.062;2023-03-01T13:58:29;16.20;99.90
7388;DHT22;3735;50.136;11.062;2023-03-01T14:01:05;16.50;99.90
7388;DHT22;3735;50.136;11.062;2023-03-01T14:03:39;16.40;99.90
7388;DHT22;3735;50.136;11.062;2023-03-01T14:06:19;16.10;99.90
7388;DHT22;3735;50.136;11.062;2023-03-01T14:09:01;15.60;99.90
7388;DHT22;3735;50.136;11.062;2023-03-01T14:11:52;15.20;99.90
7388;DHT22;3735;50.136;11.062;2023-03-01T14:17:37;15.60;99.90
7388;DHT22;3735;50.136;11.062;2023-03-01T14:20:29;15.40;99.90
7388;DHT22;3735;50.136;11.062;2023-03-01T14:22:59;14.60;99.90
7388;DHT22;3735;50.136;11.062;2023-03-01T14:25:30;14.10;99.90
7388;DHT22;3735;50.136;11.062;2023-03-01T14:28:01;13.60;99.90
7388;DHT22;3735;50.136;11.062;2023-03-01T14:30:41;13.60;99.90
7388;DHT22;3735;50.136;11.062;2023-03-01T14:36:09;14.00;99.90
7388;DHT22;3735;50.136;11.062;2023-03-01T14:38:37;14.00;99.90
7388;DHT22;3735;50.136;11.062;2023-03-01T14:41:10;13.70;99.90
7388;DHT22;3735;50.136;11.062;2023-03-01T14:43:58;13.70;99.90
7388;DHT22;3735;50.136;11.062;2023-03-01T14:46:36;12.90;99.90
7388;DHT22;3735;50.136;11.062;2023-03-01T14:49:20;12.50;99.90
7388;DHT22;3735;50.136;11.062;2023-03-01T14:52:05;12.50;99.90
7388;DHT22;3735;50.136;11.062;2023-03-01T14:54:44;12.80;99.90
7388;DHT22;3735;50.136;11.062;2023-03-01T14:57:19;12.60;99.90
7388;DHT22;3735;50.136;11.062;2023-03-01T14:59:48;12.70;99.90
7388;DHT22;3735;50.136;11.062;2023-03-01T15:02:19;12.40;99.90
7388;DHT22;3735;50.136;11.062;2023-03-01T15:04:52;12.00;99.90
7388;DHT22;3735;50.136;11.062;2023-03-01T15:07:25;11.90;99.90
7388;DHT22;3735;50.136;11.062;2023-03-01T15:09:55;11.20;99.90
7388;DHT22;3735;50.136;11.062;2023-03-01T15:14:53;11.30;99.90
7388;DHT22;3735;50.136;11.062;2023-03-01T15:17:37;11.60;99.90
7388;DHT22;3735;50.136;11.062;2023-03-01T15:20:07;11.20;99.90
7388;DHT22;3735;50.136;11.062;2023-03-01T15:22:44;11.20;99.90
7388;DHT22;3735;50.136;11.062;2023-03-01T15:25:18;11.10;99.90
7388;DHT22;3735;50.136;11.062;2023-03-01T15:27:47;11.00;99.90
7388;DHT22;3735;50.136;11.062;2023-03-01T15:30:25;11.30;99.90
7388;DHT22;3735;50.136;11.062;2023-03-01T15:35:51;10.80;99.90
7388;DHT22;3735;50.136;11.062;2023-03-01T15:41:03;10.60;99.90
7388;DHT22;3735;50.136;11.062;2023-03-01T15:43:57;9.80;99.90
7388;DHT22;3735;50.136;11.062;2023-03-01T15:46:33;8.30;99.90
7388;DHT22;3735;50.136;11.062;2023-03-01T15:51:58;6.70;99.90
7388;DHT22;3735;50.136;11.062;2023-03-01T15:54:26;6.30;99.90
7388;DHT22;3735;50.136;11.062;2023-03-01T15:56:53;6.00;99.90
7388;DHT22;3735;50.136;11.062;2023-03-01T15:59:19;5.80;99.90
7388;DHT22;3735;50.136;11.062;2023-03-01T16:01:46;5.60;99.90
7388;DHT22;3735;50.136;11.062;2023-03-01T16:04:15;5.50;99.90
7388;DHT22;3735;50.136;11.062;2023-03-01T16:06:52;5.30;99.90
7388;DHT22;3735;50.136;11.062;2023-03-01T16:09:25;5.20;99.90
7388;DHT22;3735;50.136;11.062;2023-03-01T16:11:52;5.10;99.90
7388;DHT22;3735;50.136;11.062;2023-03-01T16:14:19;5.00;99.90
7388;DHT22;3735;50.136;11.062;2023-03-01T16:16:45;4.90;99.90
7388;DHT22;3735;50.136;11.062;2023-03-01T16:19:13;4.80;99.90
7388;DHT22;3735;50.136;11.062;2023-03-01T16:21:40;4.60;99.90
7388;DHT22;3735;50.136;11.062;2023-03-01T16:24:08;4.60;99.90
7388;DHT22;3735;50.136;11.062;2023-03-01T16:26:34;4.50;99.90
7388;DHT22;3735;50.136;11.062;2023-03-01T16:29:02;4.40;99.90
7388;DHT22;3735;50.136;11.062;2023-03-01T16:31:28;4.30;99.90
7388;DHT22;3735;50.136;11.062;2023-03-01T16:33:55;4.30;99.90
7388;DHT22;3735;50.136;11.062;2023-03-01T16:36:23;4.10;99.90
7388;DHT22;3735;50.136;11.062;2023-03-01T16:38:51;4.10;99.90
7388;DHT22;3735;50.136;11.062;2023-03-01T16:41:19;4.00;99.90
7388;DHT22;3735;50.136;11.062;2023-03-01T16:43:47;3.90;99.90
7388;DHT22;3735;50.136;11.062;2023-03-01T16:46:22;3.90;99.90
7388;DHT22;3735;50.136;11.062;2023-03-01T16:48:51;3.80;99.90
7388;DHT22;3735;50.136;11.062;2023-03-01T16:51:18;3.80;99.90
7388;DHT22;3735;50.136;11.062;2023-03-01T16:53:45;3.70;99.90
7388;DHT22;3735;50.136;11.062;2023-03-01T16:56:12;3.60;99.90
7388;DHT22;3735;50.136;11.062;2023-03-01T16:58:39;3.50;99.90
7388;DHT22;3735;50.136;11.062;2023-03-01T17:01:14;3.50;99.90
7388;DHT22;3735;50.136;11.062;2023-03-01T17:03:46;3.40;99.90
7388;DHT22;3735;50.136;11.062;2023-03-01T17:06:18;3.30;99.90
7388;DHT22;3735;50.136;11.062;2023-03-01T17:08:46;3.20;99.90
7388;DHT22;3735;50.136;11.062;2023-03-01T17:11:13;3.10;99.90
7388;DHT22;3735;50.136;11.062;2023-03-01T17:13:42;3.10;99.90
7388;DHT22;3735;50.136;11.062;2023-03-01T17:16:13;3.00;99.90
7388;DHT22;3735;50.136;11.062;2023-03-01T17:18:41;3.00;99.90
7388;DHT22;3735;50.136;11.062;2023-03-01T17:21:08;2.90;99.90
7388;DHT22;3735;50.136;11.062;2023-03-01T17:23:40;2.90;99.90
7388;DHT22;3735;50.136;11.062;2023-03-01T17:26:08;2.90;99.90
7388;DHT22;3735;50.136;11.062;2023-03-01T17:28:35;2.80;99.90
7388;DHT22;3735;50.136;11.062;2023-03-01T17:31:04;2.80;99.90
7388;DHT22;3735;50.136;11.062;2023-03-01T17:33:31;2.70;99.90
7388;DHT22;3735;50.136;11.062;2023-03-01T17:35:57;2.70;99.90
7388;DHT22;3735;50.136;11.062;2023-03-01T17:38:24;2.60;99.90
7388;DHT22;3735;50.136;11.062;2023-03-01T17:40:50;2.50;99.90
7388;DHT22;3735;50.136;11.062;2023-03-01T17:43:16;2.60;99.90
7388;DHT22;3735;50.136;11.062;2023-03-01T17:45:44;2.60;99.90
7388;DHT22;3735;50.136;11.062;2023-03-01T17:48:14;2.60;99.90
7388;DHT22;3735;50.136;11.062;2023-03-01T17:50:40;2.60;99.90
7388;DHT22;3735;50.136;11.062;2023-03-01T17:53:07;2.50;99.90
7388;DHT22;3735;50.136;11.062;2023-03-01T17:55:38;2.30;99.90
7388;DHT22;3735;50.136;11.062;2023-03-01T17:58:07;2.10;99.90
7388;DHT22;3735;50.136;11.062;2023-03-01T18:00:34;2.10;99.90
7388;DHT22;3735;50.136;11.062;2023-03-01T18:03:01;2.10;99.90
7388;DHT22;3735;50.136;11.062;2023-03-01T18:05:31;2.10;99.90
7388;DHT22;3735;50.136;11.062;2023-03-01T18:07:58;1.90;99.90
7388;DHT22;3735;50.136;11.062;2023-03-01T18:10:24;1.90;99.90
7388;DHT22;3735;50.136;11.062;2023-03-01T18:12:51;1.80;99.90
7388;DHT22;3735;50.136;11.062;2023-03-01T18:15:17;1.70;99.90
7388;DHT22;3735;50.136;11.062;2023-03-01T18:17:43;1.70;99.90
7388;DHT22;3735;50.136;11.062;2023-03-01T18:20:09;1.70;99.90
7388;DHT22;3735;50.136;11.062;2023-03-01T18:22:37;1.80;99.90
7388;DHT22;3735;50.136;11.062;2023-03-01T18:25:04;1.70;99.90